sensor_id;sensor_type;location;lat;lon;timestamp;temperature;humidity
17370;DHT22;8802;52.402;4.920;2023-10-19T00:01:55;13.10;99.90
17370;DHT22;8802;52.402;4.920;2023-10-19T00:04:24;13.10;99.90
17370;DHT22;8802;52.402;4.920;2023-10-19T00:06:49;13.10;99.90
17370;DHT22;8802;52.402;4.920;2023-10-19T00:09:16;13.20;99.90
17370;DHT22;8802;52.402;4.920;2023-10-19T00:11:44;13.20;99.90
17370;DHT22;8802;52.402;4.920;2023-10-19T00:14:12;13.20;99.90
17370;DHT22;8802;52.402;4.920;2023-10-19T00:16:42;13.20;99.90
17370;DHT22;8802;52.402;4.920;2023-10-19T00:19:18;13.30;99.90
17370;DHT22;8802;52.402;4.920;2023-10-19T00:21:45;13.30;99.90
17370;DHT22;8802;52.402;4.920;2023-10-19T00:24:20;13.30;99.90
17370;DHT22;8802;52.402;4.920;2023-10-19T00:26:50;13.30;99.90
17370;DHT22;8802;52.402;4.920;2023-10-19T00:29:19;13.30;99.90
17370;DHT22;8802;52.402;4.920;2023-10-19T00:31:57;13.40;99.90
17370;DHT22;8802;52.402;4.920;2023-10-19T00:34:24;13.40;99.90
17370;DHT22;8802;52.402;4.920;2023-10-19T00:36:51;13.40;99.90
17370;DHT22;8802;52.402;4.920;2023-10-19T00:39:18;13.40;99.90
17370;DHT22;8802;52.402;4.920;2023-10-19T00:41:47;13.50;99.90
17370;DHT22;8802;52.402;4.920;2023-10-19T00:44:16;13.50;99.90
17370;DHT22;8802;52.402;4.920;2023-10-19T00:46:48;13.50;99.90
17370;DHT22;8802;52.402;4.920;2023-10-19T00:49:26;13.50;99.90
17370;DHT22;8802;52.402;4.920;2023-10-19T00:51:56;13.60;99.90
17370;DHT22;8802;52.402;4.920;2023-10-19T00:54:30;13.60;99.90
17370;DHT22;8802;52.402;4.920;2023-10-19T00:57:06;13.60;99.90
17370;DHT22;8802;52.402;4.920;2023-10-19T00:59:35;13.60;99.90
17370;DHT22;8802;52.402;4.920;2023-10-19T01:02:08;13.60;99.90
17370;DHT22;8802;52.402;4.920;2023-10-19T01:04:46;13.70;99.90
17370;DHT22;8802;52.402;4.920;2023-10-19T01:07:22;13.70;99.90
17370;DHT22;8802;52.402;4.920;2023-10-19T01:09:54;13.70;99.90
17370;DHT22;8802;52.402;4.920;2023-10-19T01:12:22;13.70;99.90
17370;DHT22;8802;52.402;4.920;2023-10-19T01:15:04;13.70;99.90
17370;DHT22;8802;52.402;4.920;2023-10-19T01:17:33;13.80;99.90
17370;DHT22;8802;52.402;4.920;2023-10-19T01:20:07;13.80;99.90
17370;DHT22;8802;52.402;4.920;2023-10-19T01:22:48;13.80;99.90
17370;DHT22;8802;52.402;4.920;2023-10-19T01:25:19;13.80;99.90
17370;DHT22;8802;52.402;4.920;2023-10-19T01:27:59;13.80;99.90
17370;DHT22;8802;52.402;4.920;2023-10-19T01:30:32;13.90;99.90
17370;DHT22;8802;52.402;4.920;2023-10-19T01:33:00;13.90;99.90
17370;DHT22;8802;52.402;4.920;2023-10-19T01:35:27;13.90;99.90
17370;DHT22;8802;52.402;4.920;2023-10-19T01:38:16;13.90;99.90
17370;DHT22;8802;52.402;4.920;2023-10-19T01:40:42;14.00;99.90
17370;DHT22;8802;52.402;4.920;2023-10-19T01:43:11;14.00;99.90
17370;DHT22;8802;52.402;4.920;2023-10-19T01:45:46;14.00;99.90
17370;DHT22;8802;52.402;4.920;2023-10-19T01:48:13;14.00;99.90
17370;DHT22;8802;52.402;4.920;2023-10-19T01:50:39;14.10;99.90
17370;DHT22;8802;52.402;4.920;2023-10-19T01:53:07;14.10;99.90
17370;DHT22;8802;52.402;4.920;2023-10-19T01:55:42;14.10;99.90
17370;DHT22;8802;52.402;4.920;2023-10-19T01:58:09;14.10;99.90
17370;DHT22;8802;52.402;4.920;2023-10-19T02:00:35;14.10;99.90
17370;DHT22;8802;52.402;4.920;2023-10-19T02:03:08;14.20;99.90
17370;DHT22;8802;52.402;4.920;2023-10-19T02:05:34;14.20;99.90
17370;DHT22;8802;52.402;4.920;2023-10-19T02:08:07;14.20;99.90
17370;DHT22;8802;52.402;4.920;2023-10-19T02:10:33;14.20;99.90
17370;DHT22;8802;52.402;4.920;2023-10-19T02:13:03;14.30;99.90
17370;DHT22;8802;52.402;4.920;2023-10-19T02:15:33;14.30;99.90
17370;DHT22;8802;52.402;4.920;2023-10-19T02:18:00;14.30;99.90
17370;DHT22;8802;52.402;4.920;2023-10-19T02:20:28;14.40;99.90
17370;DHT22;8802;52.402;4.920;2023-10-19T02:22:54;14.40;99.90
17370;DHT22;8802;52.402;4.920;2023-10-19T02:25:23;14.40;99.90
17370;DHT22;8802;52.402;4.920;2023-10-19T02:27:51;14.50;99.90
17370;DHT22;8802;52.402;4.920;2023-10-19T02:30:19;14.50;99.90
17370;DHT22;8802;52.402;4.920;2023-10-19T02:32:45;14.50;99.90
17370;DHT22;8802;52.402;4.920;2023-10-19T02:35:14;14.60;99.90
17370;DHT22;8802;52.402;4.920;2023-10-19T02:37:40;14.60;99.90
17370;DHT22;8802;52.402;4.920;2023-10-19T02:40:07;14.60;99.90
17370;DHT22;8802;52.402;4.920;2023-10-19T02:42:45;14.70;99.90
17370;DHT22;8802;52.402;4.920;2023-10-19T02:45:14;14.70;99.90
17370;DHT22;8802;52.402;4.920;2023-10-19T02:47:43;14.80;99.90
17370;DHT22;8802;52.402;4.920;2023-10-19T02:50:11;14.80;99.90
17370;DHT22;8802;52.402;4.920;2023-10-19T02:52:41;14.80;99.90
17370;DHT22;8802;52.402;4.920;2023-10-19T02:55:09;14.90;99.90
17370;DHT22;8802;52.402;4.920;2023-10-19T02:57:35;14.90;99.90
17370;DHT22;8802;52.402;4.920;2023-10-19T03:00:05;15.00;99.90
17370;DHT22;8802;52.402;4.920;2023-10-19T03:02:37;15.00;99.90
17370;DHT22;8802;52.402;4.920;2023-10-19T03:05:07;15.10;99.90
17370;DHT22;8802;52.402;4.920;2023-10-19T03:07:41;15.10;99.90
17370;DHT22;8802;52.402;4.920;2023-10-19T03:10:09;15.20;99.90
17370;DHT22;8802;52.402;4.920;2023-10-19T03:12:48;15.20;99.90
17370;DHT22;8802;52.402;4.920;2023-10-19T03:15:16;15.30;99.90
17370;DHT22;8802;52.402;4.920;2023-10-19T03:17:43;15.30;99.90
17370;DHT22;8802;52.402;4.920;2023-10-19T03:20:11;15.40;99.90
17370;DHT22;8802;52.402;4.920;2023-10-19T03:22:37;15.40;99.90
17370;DHT22;8802;52.402;4.920;2023-10-19T03:25:06;15.50;99.90
17370;DHT22;8802;52.402;4.920;2023-10-19T03:28:00;15.50;99.90
17370;DHT22;8802;52.402;4.920;2023-10-19T03:30:34;15.60;99.90
17370;DHT22;8802;52.402;4.920;2023-10-19T03:33:04;15.60;99.90
17370;DHT22;8802;52.402;4.920;2023-10-19T03:35:35;15.70;99.90
17370;DHT22;8802;52.402;4.920;2023-10-19T03:38:03;15.70;99.90
17370;DHT22;8802;52.402;4.920;2023-10-19T03:40:34;15.70;99.90
17370;DHT22;8802;52.402;4.920;2023-10-19T03:43:04;15.80;99.90
17370;DHT22;8802;52.402;4.920;2023-10-19T03:45:43;15.80;99.90
17370;DHT22;8802;52.402;4.920;2023-10-19T03:48:18;15.90;99.90
17370;DHT22;8802;52.402;4.920;2023-10-19T03:50:51;15.90;99.90
17370;DHT22;8802;52.402;4.920;2023-10-19T03:53:18;16.00;99.90
17370;DHT22;8802;52.402;4.920;2023-10-19T03:55:47;16.00;99.90
17370;DHT22;8802;52.402;4.920;2023-10-19T03:58:15;16.10;99.90
17370;DHT22;8802;52.402;4.920;2023-10-19T04:00:42;16.10;99.90
17370;DHT22;8802;52.402;4.920;2023-10-19T04:03:10;16.10;99.90
17370;DHT22;8802;52.402;4.920;2023-10-19T04:05:37;16.20;99.90
17370;DHT22;8802;52.402;4.920;2023-10-19T04:08:06;16.20;99.90
17370;DHT22;8802;52.402;4.920;2023-10-19T04:10:40;16.30;99.90
17370;DHT22;8802;52.402;4.920;2023-10-19T04:13:10;16.30;99.90
17370;DHT22;8802;52.402;4.920;2023-10-19T04:15:38;16.30;99.90
17370;DHT22;8802;52.402;4.920;2023-10-19T04:18:05;16.40;99.90
17370;DHT22;8802;52.402;4.920;2023-10-19T04:20:35;16.40;99.90
17370;DHT22;8802;52.402;4.920;2023-10-19T04:23:09;16.40;99.90
17370;DHT22;8802;52.402;4.920;2023-10-19T04:25:39;16.40;99.90
17370;DHT22;8802;52.402;4.920;2023-10-19T04:28:06;16.40;99.90
17370;DHT22;8802;52.402;4.920;2023-10-19T04:30:34;16.40;99.90
17370;DHT22;8802;52.402;4.920;2023-10-19T04:33:03;16.40;99.90
17370;DHT22;8802;52.402;4.920;2023-10-19T04:35:34;16.50;99.90
17370;DHT22;8802;52.402;4.920;2023-10-19T04:38:04;16.50;99.90
17370;DHT22;8802;52.402;4.920;2023-10-19T04:40:34;16.50;99.90
17370;DHT22;8802;52.402;4.920;2023-10-19T04:43:02;16.50;99.90
17370;DHT22;8802;52.402;4.920;2023-10-19T04:45:30;16.50;99.90
17370;DHT22;8802;52.402;4.920;2023-10-19T04:47:57;16.50;99.90
17370;DHT22;8802;52.402;4.920;2023-10-19T04:50:24;16.50;99.90
17370;DHT22;8802;52.402;4.920;2023-10-19T04:52:51;16.60;99.90
17370;DHT22;8802;52.402;4.920;2023-10-19T04:55:18;16.60;99.90
17370;DHT22;8802;52.402;4.920;2023-10-19T04:57:46;16.60;99.90
17370;DHT22;8802;52.402;4.920;2023-10-19T05:00:13;16.60;99.90
17370;DHT22;8802;52.402;4.920;2023-10-19T05:02:41;16.60;99.90
17370;DHT22;8802;52.402;4.920;2023-10-19T05:05:08;16.60;99.90
17370;DHT22;8802;52.402;4.920;2023-10-19T05:07:35;16.60;99.90
17370;DHT22;8802;52.402;4.920;2023-10-19T05:10:03;16.70;99.90
17370;DHT22;8802;52.402;4.920;2023-10-19T05:12:31;16.60;99.90
17370;DHT22;8802;52.402;4.920;2023-10-19T05:14:59;16.70;99.90
17370;DHT22;8802;52.402;4.920;2023-10-19T05:17:26;16.70;99.90
17370;DHT22;8802;52.402;4.920;2023-10-19T05:19:53;16.70;99.90
17370;DHT22;8802;52.402;4.920;2023-10-19T05:22:20;16.70;99.90
17370;DHT22;8802;52.402;4.920;2023-10-19T05:24:50;16.70;99.90
17370;DHT22;8802;52.402;4.920;2023-10-19T05:27:17;16.70;99.90
17370;DHT22;8802;52.402;4.920;2023-10-19T05:29:45;16.70;99.90
17370;DHT22;8802;52.402;4.920;2023-10-19T05:32:13;16.70;99.90
17370;DHT22;8802;52.402;4.920;2023-10-19T05:34:40;16.70;99.90
17370;DHT22;8802;52.402;4.920;2023-10-19T05:37:07;16.70;99.90
17370;DHT22;8802;52.402;4.920;2023-10-19T05:39:34;16.70;99.90
17370;DHT22;8802;52.402;4.920;2023-10-19T05:42:01;16.70;99.90
17370;DHT22;8802;52.402;4.920;2023-10-19T05:44:30;16.70;99.90
17370;DHT22;8802;52.402;4.920;2023-10-19T05:46:56;16.80;99.90
17370;DHT22;8802;52.402;4.920;2023-10-19T05:49:25;16.80;99.90
17370;DHT22;8802;52.402;4.920;2023-10-19T05:51:52;16.80;99.90
17370;DHT22;8802;52.402;4.920;2023-10-19T05:54:19;16.80;99.90
17370;DHT22;8802;52.402;4.920;2023-10-19T05:56:49;16.80;99.90
17370;DHT22;8802;52.402;4.920;2023-10-19T05:59:17;16.80;99.90
17370;DHT22;8802;52.402;4.920;2023-10-19T06:01:44;16.80;99.90
17370;DHT22;8802;52.402;4.920;2023-10-19T06:04:12;16.80;99.90
17370;DHT22;8802;52.402;4.920;2023-10-19T06:06:40;16.80;99.90
17370;DHT22;8802;52.402;4.920;2023-10-19T06:09:07;16.80;99.90
17370;DHT22;8802;52.402;4.920;2023-10-19T06:11:35;16.80;99.90
17370;DHT22;8802;52.402;4.920;2023-10-19T06:14:03;16.80;99.90
17370;DHT22;8802;52.402;4.920;2023-10-19T06:16:32;16.80;99.90
17370;DHT22;8802;52.402;4.920;2023-10-19T06:18:59;16.80;99.90
17370;DHT22;8802;52.402;4.920;2023-10-19T06:21:26;16.80;99.90
17370;DHT22;8802;52.402;4.920;2023-10-19T06:23:54;16.80;99.90
17370;DHT22;8802;52.402;4.920;2023-10-19T06:26:21;16.80;99.90
17370;DHT22;8802;52.402;4.920;2023-10-19T06:28:48;16.80;99.90
17370;DHT22;8802;52.402;4.920;2023-10-19T06:31:16;16.80;99.90
17370;DHT22;8802;52.402;4.920;2023-10-19T06:33:44;16.80;99.90
17370;DHT22;8802;52.402;4.920;2023-10-19T06:36:11;16.80;99.90
17370;DHT22;8802;52.402;4.920;2023-10-19T06:38:38;16.80;99.90
17370;DHT22;8802;52.402;4.920;2023-10-19T06:41:15;16.80;99.90
17370;DHT22;8802;52.402;4.920;2023-10-19T06:43:44;16.80;99.90
17370;DHT22;8802;52.402;4.920;2023-10-19T06:46:10;16.80;99.90
17370;DHT22;8802;52.402;4.920;2023-10-19T06:48:38;16.70;99.90
17370;DHT22;8802;52.402;4.920;2023-10-19T06:51:05;16.80;99.90
17370;DHT22;8802;52.402;4.920;2023-10-19T06:53:32;16.80;99.90
17370;DHT22;8802;52.402;4.920;2023-10-19T06:55:59;16.80;99.90
17370;DHT22;8802;52.402;4.920;2023-10-19T06:58:27;16.80;99.90
17370;DHT22;8802;52.402;4.920;2023-10-19T07:00:55;16.80;99.90
17370;DHT22;8802;52.402;4.920;2023-10-19T07:03:26;16.80;99.90
17370;DHT22;8802;52.402;4.920;2023-10-19T07:05:54;16.80;99.90
17370;DHT22;8802;52.402;4.920;2023-10-19T07:08:22;16.80;99.90
17370;DHT22;8802;52.402;4.920;2023-10-19T07:10:49;16.80;99.90
17370;DHT22;8802;52.402;4.920;2023-10-19T07:13:16;16.80;99.90
17370;DHT22;8802;52.402;4.920;2023-10-19T07:15:46;16.80;99.90
17370;DHT22;8802;52.402;4.920;2023-10-19T07:18:14;16.80;99.90
17370;DHT22;8802;52.402;4.920;2023-10-19T07:20:41;16.80;99.90
17370;DHT22;8802;52.402;4.920;2023-10-19T07:23:09;16.80;99.90
17370;DHT22;8802;52.402;4.920;2023-10-19T07:25:44;16.80;99.90
17370;DHT22;8802;52.402;4.920;2023-10-19T07:28:13;16.80;99.90
17370;DHT22;8802;52.402;4.920;2023-10-19T07:30:40;16.80;99.90
17370;DHT22;8802;52.402;4.920;2023-10-19T07:33:09;16.90;99.90
17370;DHT22;8802;52.402;4.920;2023-10-19T07:35:37;16.90;99.90
17370;DHT22;8802;52.402;4.920;2023-10-19T07:38:05;16.90;99.90
17370;DHT22;8802;52.402;4.920;2023-10-19T07:40:33;16.90;99.90
17370;DHT22;8802;52.402;4.920;2023-10-19T07:43:00;16.90;99.90
17370;DHT22;8802;52.402;4.920;2023-10-19T07:45:27;16.90;99.90
17370;DHT22;8802;52.402;4.920;2023-10-19T07:47:54;16.90;99.90
17370;DHT22;8802;52.402;4.920;2023-10-19T07:50:22;16.90;99.90
17370;DHT22;8802;52.402;4.920;2023-10-19T07:52:51;17.00;99.90
17370;DHT22;8802;52.402;4.920;2023-10-19T07:55:21;17.00;99.90
17370;DHT22;8802;52.402;4.920;2023-10-19T07:57:49;17.00;99.90
17370;DHT22;8802;52.402;4.920;2023-10-19T08:00:18;17.00;99.90
17370;DHT22;8802;52.402;4.920;2023-10-19T08:02:45;17.00;99.90
17370;DHT22;8802;52.402;4.920;2023-10-19T08:05:13;17.00;99.90
17370;DHT22;8802;52.402;4.920;2023-10-19T08:07:42;17.00;99.90
17370;DHT22;8802;52.402;4.920;2023-10-19T08:10:10;17.10;99.90
17370;DHT22;8802;52.402;4.920;2023-10-19T08:12:37;17.10;99.90
17370;DHT22;8802;52.402;4.920;2023-10-19T08:15:07;17.10;99.90
17370;DHT22;8802;52.402;4.920;2023-10-19T08:17:36;17.10;99.90
17370;DHT22;8802;52.402;4.920;2023-10-19T08:20:06;17.10;99.90
17370;DHT22;8802;52.402;4.920;2023-10-19T08:22:34;17.10;99.90
17370;DHT22;8802;52.402;4.920;2023-10-19T08:25:04;17.20;99.90
17370;DHT22;8802;52.402;4.920;2023-10-19T08:27:37;17.10;99.90
17370;DHT22;8802;52.402;4.920;2023-10-19T08:30:06;17.20;99.90
17370;DHT22;8802;52.402;4.920;2023-10-19T08:32:34;17.20;99.90
17370;DHT22;8802;52.402;4.920;2023-10-19T08:35:01;17.20;99.90
17370;DHT22;8802;52.402;4.920;2023-10-19T08:37:28;17.20;99.90
17370;DHT22;8802;52.402;4.920;2023-10-19T08:39:55;17.30;99.90
17370;DHT22;8802;52.402;4.920;2023-10-19T08:42:24;17.20;99.90
17370;DHT22;8802;52.402;4.920;2023-10-19T08:44:51;17.30;99.90
17370;DHT22;8802;52.402;4.920;2023-10-19T08:47:18;17.30;99.90
17370;DHT22;8802;52.402;4.920;2023-10-19T08:49:46;17.30;99.90
17370;DHT22;8802;52.402;4.920;2023-10-19T08:52:14;17.30;99.90
17370;DHT22;8802;52.402;4.920;2023-10-19T08:54:41;17.40;99.90
17370;DHT22;8802;52.402;4.920;2023-10-19T08:57:09;17.40;99.90
17370;DHT22;8802;52.402;4.920;2023-10-19T08:59:38;17.40;99.90
17370;DHT22;8802;52.402;4.920;2023-10-19T09:02:05;17.40;99.90
17370;DHT22;8802;52.402;4.920;2023-10-19T09:04:32;17.40;99.90
17370;DHT22;8802;52.402;4.920;2023-10-19T09:06:59;17.40;99.90
17370;DHT22;8802;52.402;4.920;2023-10-19T09:09:32;17.50;99.90
17370;DHT22;8802;52.402;4.920;2023-10-19T09:12:00;17.50;99.90
17370;DHT22;8802;52.402;4.920;2023-10-19T09:14:32;17.50;99.90
17370;DHT22;8802;52.402;4.920;2023-10-19T09:17:02;17.50;99.90
17370;DHT22;8802;52.402;4.920;2023-10-19T09:19:37;17.60;99.90
17370;DHT22;8802;52.402;4.920;2023-10-19T09:22:04;17.60;99.90
17370;DHT22;8802;52.402;4.920;2023-10-19T09:24:34;17.60;99.90
17370;DHT22;8802;52.402;4.920;2023-10-19T09:27:02;17.60;99.90
17370;DHT22;8802;52.402;4.920;2023-10-19T09:29:29;17.70;99.90
17370;DHT22;8802;52.402;4.920;2023-10-19T09:31:58;17.70;99.90
17370;DHT22;8802;52.402;4.920;2023-10-19T09:34:30;17.70;99.90
17370;DHT22;8802;52.402;4.920;2023-10-19T09:36:58;17.70;99.90
17370;DHT22;8802;52.402;4.920;2023-10-19T09:39:27;17.80;99.90
17370;DHT22;8802;52.402;4.920;2023-10-19T09:42:00;17.80;99.90
17370;DHT22;8802;52.402;4.920;2023-10-19T09:44:34;17.90;99.90
17370;DHT22;8802;52.402;4.920;2023-10-19T09:47:10;18.00;99.90
17370;DHT22;8802;52.402;4.920;2023-10-19T09:49:40;18.00;99.90
17370;DHT22;8802;52.402;4.920;2023-10-19T09:52:09;18.00;99.90
17370;DHT22;8802;52.402;4.920;2023-10-19T09:54:46;18.10;99.90
17370;DHT22;8802;52.402;4.920;2023-10-19T09:57:18;18.10;99.90
17370;DHT22;8802;52.402;4.920;2023-10-19T09:59:50;18.20;99.90
17370;DHT22;8802;52.402;4.920;2023-10-19T10:02:19;18.20;99.90
17370;DHT22;8802;52.402;4.920;2023-10-19T10:04:49;18.30;99.90
17370;DHT22;8802;52.402;4.920;2023-10-19T10:07:17;18.30;99.90
17370;DHT22;8802;52.402;4.920;2023-10-19T10:09:44;18.40;99.90
17370;DHT22;8802;52.402;4.920;2023-10-19T10:12:22;18.40;99.90
17370;DHT22;8802;52.402;4.920;2023-10-19T10:14:56;18.40;99.90
17370;DHT22;8802;52.402;4.920;2023-10-19T10:17:24;18.50;99.90
17370;DHT22;8802;52.402;4.920;2023-10-19T10:19:55;18.50;99.90
17370;DHT22;8802;52.402;4.920;2023-10-19T10:22:24;18.50;99.90
17370;DHT22;8802;52.402;4.920;2023-10-19T10:24:54;18.60;99.90
17370;DHT22;8802;52.402;4.920;2023-10-19T10:27:22;18.60;99.90
17370;DHT22;8802;52.402;4.920;2023-10-19T10:29:56;18.60;99.90
17370;DHT22;8802;52.402;4.920;2023-10-19T10:32:43;18.70;99.90
17370;DHT22;8802;52.402;4.920;2023-10-19T10:38:17;18.70;99.90
17370;DHT22;8802;52.402;4.920;2023-10-19T10:40:43;18.70;99.90
17370;DHT22;8802;52.402;4.920;2023-10-19T10:43:11;18.80;99.90
17370;DHT22;8802;52.402;4.920;2023-10-19T10:45:39;18.80;99.90
17370;DHT22;8802;52.402;4.920;2023-10-19T10:48:11;18.80;99.90
17370;DHT22;8802;52.402;4.920;2023-10-19T10:50:40;18.80;99.90
17370;DHT22;8802;52.402;4.920;2023-10-19T10:53:08;18.80;99.90
17370;DHT22;8802;52.402;4.920;2023-10-19T10:55:37;18.90;99.90
17370;DHT22;8802;52.402;4.920;2023-10-19T10:58:04;18.90;99.90
17370;DHT22;8802;52.402;4.920;2023-10-19T11:00:31;18.80;99.90
17370;DHT22;8802;52.402;4.920;2023-10-19T11:03:01;18.80;99.90
17370;DHT22;8802;52.402;4.920;2023-10-19T11:05:29;18.90;99.90
17370;DHT22;8802;52.402;4.920;2023-10-19T11:08:06;18.90;99.90
17370;DHT22;8802;52.402;4.920;2023-10-19T11:10:33;18.90;99.90
17370;DHT22;8802;52.402;4.920;2023-10-19T11:13:01;18.90;99.90
17370;DHT22;8802;52.402;4.920;2023-10-19T11:15:28;18.90;99.90
17370;DHT22;8802;52.402;4.920;2023-10-19T11:17:55;18.90;99.90
17370;DHT22;8802;52.402;4.920;2023-10-19T11:20:23;18.90;99.90
17370;DHT22;8802;52.402;4.920;2023-10-19T11:22:54;18.90;99.90
17370;DHT22;8802;52.402;4.920;2023-10-19T11:25:25;19.00;99.90
17370;DHT22;8802;52.402;4.920;2023-10-19T11:27:54;19.00;99.90
17370;DHT22;8802;52.402;4.920;2023-10-19T11:30:25;19.00;99.90
17370;DHT22;8802;52.402;4.920;2023-10-19T11:32:52;19.10;99.90
17370;DHT22;8802;52.402;4.920;2023-10-19T11:35:26;19.10;99.90
17370;DHT22;8802;52.402;4.920;2023-10-19T11:37:54;19.10;99.90
17370;DHT22;8802;52.402;4.920;2023-10-19T11:40:24;19.20;99.90
17370;DHT22;8802;52.402;4.920;2023-10-19T11:42:51;19.20;99.90
17370;DHT22;8802;52.402;4.920;2023-10-19T11:45:20;19.20;99.90
17370;DHT22;8802;52.402;4.920;2023-10-19T11:47:47;19.30;99.90
17370;DHT22;8802;52.402;4.920;2023-10-19T11:50:14;19.30;99.90
17370;DHT22;8802;52.402;4.920;2023-10-19T11:52:41;19.30;99.90
17370;DHT22;8802;52.402;4.920;2023-10-19T11:55:09;19.30;99.90
17370;DHT22;8802;52.402;4.920;2023-10-19T11:57:37;19.40;99.90
17370;DHT22;8802;52.402;4.920;2023-10-19T12:00:05;19.40;99.90
17370;DHT22;8802;52.402;4.920;2023-10-19T12:02:35;19.40;99.90
17370;DHT22;8802;52.402;4.920;2023-10-19T12:05:04;19.40;99.90
17370;DHT22;8802;52.402;4.920;2023-10-19T12:07:35;19.40;99.90
17370;DHT22;8802;52.402;4.920;2023-10-19T12:10:02;19.50;99.90
17370;DHT22;8802;52.402;4.920;2023-10-19T12:12:30;19.60;99.90
17370;DHT22;8802;52.402;4.920;2023-10-19T12:14:58;19.60;99.90
17370;DHT22;8802;52.402;4.920;2023-10-19T12:17:25;19.70;99.90
17370;DHT22;8802;52.402;4.920;2023-10-19T12:19:53;19.70;99.90
17370;DHT22;8802;52.402;4.920;2023-10-19T12:22:21;19.80;99.90
17370;DHT22;8802;52.402;4.920;2023-10-19T12:24:49;19.80;99.90
17370;DHT22;8802;52.402;4.920;2023-10-19T12:27:17;19.80;99.90
17370;DHT22;8802;52.402;4.920;2023-10-19T12:29:44;19.90;99.90
17370;DHT22;8802;52.402;4.920;2023-10-19T12:32:13;19.90;99.90
17370;DHT22;8802;52.402;4.920;2023-10-19T12:34:40;19.90;99.90
17370;DHT22;8802;52.402;4.920;2023-10-19T12:37:07;20.00;99.90
17370;DHT22;8802;52.402;4.920;2023-10-19T12:39:36;19.90;99.90
17370;DHT22;8802;52.402;4.920;2023-10-19T12:42:09;19.90;99.90
17370;DHT22;8802;52.402;4.920;2023-10-19T12:44:36;19.90;99.90
17370;DHT22;8802;52.402;4.920;2023-10-19T12:47:07;19.90;99.90
17370;DHT22;8802;52.402;4.920;2023-10-19T12:49:38;19.90;99.90
17370;DHT22;8802;52.402;4.920;2023-10-19T12:52:05;19.90;99.90
17370;DHT22;8802;52.402;4.920;2023-10-19T12:54:32;19.90;99.90
17370;DHT22;8802;52.402;4.920;2023-10-19T12:57:00;19.90;99.90
17370;DHT22;8802;52.402;4.920;2023-10-19T12:59:29;19.90;99.90
17370;DHT22;8802;52.402;4.920;2023-10-19T13:01:56;19.90;99.90
17370;DHT22;8802;52.402;4.920;2023-10-19T13:04:24;19.90;99.90
17370;DHT22;8802;52.402;4.920;2023-10-19T13:06:52;19.90;99.90
17370;DHT22;8802;52.402;4.920;2023-10-19T13:09:23;19.90;99.90
17370;DHT22;8802;52.402;4.920;2023-10-19T13:11:57;19.90;99.90
17370;DHT22;8802;52.402;4.920;2023-10-19T13:14:24;19.90;99.90
17370;DHT22;8802;52.402;4.920;2023-10-19T13:16:51;19.90;99.90
17370;DHT22;8802;52.402;4.920;2023-10-19T13:19:18;19.90;99.90
17370;DHT22;8802;52.402;4.920;2023-10-19T13:21:46;19.90;99.90
17370;DHT22;8802;52.402;4.920;2023-10-19T13:24:16;19.90;99.90
17370;DHT22;8802;52.402;4.920;2023-10-19T13:26:44;19.90;99.90
17370;DHT22;8802;52.402;4.920;2023-10-19T13:29:12;19.90;99.90
17370;DHT22;8802;52.402;4.920;2023-10-19T13:31:40;19.90;99.90
17370;DHT22;8802;52.402;4.920;2023-10-19T13:34:10;19.90;99.90
17370;DHT22;8802;52.402;4.920;2023-10-19T13:36:38;19.90;99.90
17370;DHT22;8802;52.402;4.920;2023-10-19T13:39:06;19.90;99.90
17370;DHT22;8802;52.402;4.920;2023-10-19T13:41:40;19.90;99.90
17370;DHT22;8802;52.402;4.920;2023-10-19T13:44:07;19.90;99.90
17370;DHT22;8802;52.402;4.920;2023-10-19T13:46:34;19.90;99.90
17370;DHT22;8802;52.402;4.920;2023-10-19T13:49:01;19.80;99.90
17370;DHT22;8802;52.402;4.920;2023-10-19T13:51:31;19.80;99.90
17370;DHT22;8802;52.402;4.920;2023-10-19T13:53:58;19.80;99.90
17370;DHT22;8802;52.402;4.920;2023-10-19T13:56:25;19.80;99.90
17370;DHT22;8802;52.402;4.920;2023-10-19T13:58:54;19.70;99.90
17370;DHT22;8802;52.402;4.920;2023-10-19T14:01:21;19.70;99.90
17370;DHT22;8802;52.402;4.920;2023-10-19T14:03:51;19.70;99.90
17370;DHT22;8802;52.402;4.920;2023-10-19T14:06:20;19.70;99.90
17370;DHT22;8802;52.402;4.920;2023-10-19T14:08:47;19.70;99.90
17370;DHT22;8802;52.402;4.920;2023-10-19T14:11:14;19.70;99.90
17370;DHT22;8802;52.402;4.920;2023-10-19T14:13:41;19.60;99.90
17370;DHT22;8802;52.402;4.920;2023-10-19T14:16:10;19.60;99.90
17370;DHT22;8802;52.402;4.920;2023-10-19T14:18:37;19.60;99.90
17370;DHT22;8802;52.402;4.920;2023-10-19T14:21:11;19.60;99.90
17370;DHT22;8802;52.402;4.920;2023-10-19T14:23:39;19.60;99.90
17370;DHT22;8802;52.402;4.920;2023-10-19T14:26:09;19.60;99.90
17370;DHT22;8802;52.402;4.920;2023-10-19T14:28:35;19.50;99.90
17370;DHT22;8802;52.402;4.920;2023-10-19T14:31:03;19.60;99.90
17370;DHT22;8802;52.402;4.920;2023-10-19T14:33:34;19.50;99.90
17370;DHT22;8802;52.402;4.920;2023-10-19T14:36:02;19.50;99.90
17370;DHT22;8802;52.402;4.920;2023-10-19T14:38:29;19.50;99.90
17370;DHT22;8802;52.402;4.920;2023-10-19T14:40:56;19.50;99.90
17370;DHT22;8802;52.402;4.920;2023-10-19T14:43:23;19.50;99.90
17370;DHT22;8802;52.402;4.920;2023-10-19T14:45:51;19.50;99.90
17370;DHT22;8802;52.402;4.920;2023-10-19T14:48:18;19.40;99.90
17370;DHT22;8802;52.402;4.920;2023-10-19T14:50:47;19.50;99.90
17370;DHT22;8802;52.402;4.920;2023-10-19T14:53:16;19.40;99.90
17370;DHT22;8802;52.402;4.920;2023-10-19T14:55:44;19.40;99.90
17370;DHT22;8802;52.402;4.920;2023-10-19T14:58:11;19.40;99.90
17370;DHT22;8802;52.402;4.920;2023-10-19T15:00:38;19.40;99.90
17370;DHT22;8802;52.402;4.920;2023-10-19T15:03:08;19.40;99.90
17370;DHT22;8802;52.402;4.920;2023-10-19T15:05:36;19.40;99.90
17370;DHT22;8802;52.402;4.920;2023-10-19T15:08:05;19.30;99.90
17370;DHT22;8802;52.402;4.920;2023-10-19T15:10:33;19.30;99.90
17370;DHT22;8802;52.402;4.920;2023-10-19T15:13:00;19.30;99.90
17370;DHT22;8802;52.402;4.920;2023-10-19T15:15:29;19.30;99.90
17370;DHT22;8802;52.402;4.920;2023-10-19T15:17:56;19.30;99.90
17370;DHT22;8802;52.402;4.920;2023-10-19T15:20:26;19.20;99.90
17370;DHT22;8802;52.402;4.920;2023-10-19T15:22:53;19.20;99.90
17370;DHT22;8802;52.402;4.920;2023-10-19T15:25:22;19.20;99.90
17370;DHT22;8802;52.402;4.920;2023-10-19T15:27:51;19.20;99.90
17370;DHT22;8802;52.402;4.920;2023-10-19T15:30:19;19.10;99.90
17370;DHT22;8802;52.402;4.920;2023-10-19T15:32:47;19.10;99.90
17370;DHT22;8802;52.402;4.920;2023-10-19T15:35:15;19.10;99.90
17370;DHT22;8802;52.402;4.920;2023-10-19T15:37:46;19.10;99.90
17370;DHT22;8802;52.402;4.920;2023-10-19T15:40:14;19.10;99.90
17370;DHT22;8802;52.402;4.920;2023-10-19T15:42:43;19.00;99.90
17370;DHT22;8802;52.402;4.920;2023-10-19T15:45:11;19.00;99.90
17370;DHT22;8802;52.402;4.920;2023-10-19T15:47:38;19.00;99.90
17370;DHT22;8802;52.402;4.920;2023-10-19T15:50:06;19.00;99.90
17370;DHT22;8802;52.402;4.920;2023-10-19T15:52:34;19.00;99.90
17370;DHT22;8802;52.402;4.920;2023-10-19T15:55:06;18.90;99.90
17370;DHT22;8802;52.402;4.920;2023-10-19T15:57:33;18.90;99.90
17370;DHT22;8802;52.402;4.920;2023-10-19T16:00:02;18.90;99.90